createdAt,value
2023-02-06T00:03:38.513Z,22.09
2023-02-06T00:08:41.398Z,22.05
2023-02-06T00:13:45.519Z,22.04
2023-02-06T00:18:50.404Z,22.06
2023-02-06T00:23:55.523Z,22.02
2023-02-06T00:28:58.355Z,22.04
2023-02-06T00:34:03.781Z,22.07
2023-02-06T00:39:06.669Z,22.05
2023-02-06T00:44:09.468Z,22.04
2023-02-06T00:49:13.893Z,22.04
2023-02-06T00:54:16.649Z,22.04
2023-02-06T00:59:19.390Z,22.03
2023-02-06T01:04:23.500Z,22.05
2023-02-06T01:09:26.253Z,22.07
2023-02-06T01:14:29.213Z,22.04
2023-02-06T01:19:33.597Z,22.05
2023-02-06T01:24:37.092Z,22.06
2023-02-06T01:29:39.861Z,22.05
2023-02-06T01:34:44.052Z,22.00
2023-02-06T01:39:46.840Z,22.04
2023-02-06T01:44:49.728Z,22.01
2023-02-06T01:49:53.934Z,22.01
2023-02-06T01:55:00.484Z,21.99
2023-02-06T02:00:08.207Z,22.02
2023-02-06T02:05:19.350Z,21.99
2023-02-06T02:10:22.157Z,22.02
2023-02-06T02:15:31.770Z,22.02
2023-02-06T02:20:55.275Z,22.04
2023-02-06T02:26:25.613Z,22.01
2023-02-06T02:32:00.721Z,21.99
2023-02-06T02:37:12.413Z,22.00
2023-02-06T02:42:21.675Z,22.00
2023-02-06T02:47:31.404Z,21.98
2023-02-06T02:52:35.553Z,21.95
2023-02-06T02:57:38.556Z,21.95
2023-02-06T03:02:42.981Z,21.98
2023-02-06T03:07:58.062Z,21.80
2023-02-06T03:13:07.434Z,21.90
2023-02-06T03:18:13.652Z,21.96
2023-02-06T03:23:23.311Z,21.98
2023-02-06T03:28:32.242Z,22.01
2023-02-06T03:33:41.120Z,21.99
2023-02-06T03:38:46.808Z,22.01
2023-02-06T03:43:52.123Z,22.00
2023-02-06T03:48:59.665Z,21.98
2023-02-06T03:54:06.532Z,21.94
2023-02-06T03:59:09.327Z,21.92
2023-02-06T04:04:12.109Z,21.85
2023-02-06T04:09:16.220Z,21.79
2023-02-06T04:14:19.047Z,21.75
2023-02-06T04:19:21.791Z,21.68
2023-02-06T04:24:26.476Z,21.62
2023-02-06T04:29:29.404Z,21.58
2023-02-06T04:34:33.212Z,21.53
2023-02-06T04:39:37.299Z,21.42
2023-02-06T04:44:40.136Z,21.44
2023-02-06T04:49:42.868Z,21.39
2023-02-06T04:54:47.005Z,21.35
2023-02-06T04:59:49.792Z,21.29
2023-02-06T05:04:52.647Z,21.22
2023-02-06T05:09:56.796Z,21.19
2023-02-06T05:14:59.603Z,21.05
2023-02-06T05:20:02.403Z,20.99
2023-02-06T05:25:07.054Z,20.92
2023-02-06T05:30:11.134Z,20.86
2023-02-06T05:35:13.887Z,20.81
2023-02-06T05:40:18.383Z,20.79
2023-02-06T05:45:21.214Z,20.76
2023-02-06T05:50:24.071Z,20.73
2023-02-06T05:55:30.530Z,20.71
2023-02-06T06:00:33.389Z,20.68
2023-02-06T06:05:36.447Z,20.65
2023-02-06T06:10:40.843Z,20.59
2023-02-06T06:15:43.763Z,20.59
2023-02-06T06:20:47.383Z,20.56
2023-02-06T06:25:51.591Z,20.54
2023-02-06T06:31:01.712Z,20.50
2023-02-06T06:36:05.186Z,20.49
2023-02-06T06:41:09.292Z,20.46
2023-02-06T06:46:12.236Z,20.43
2023-02-06T06:51:14.963Z,20.40
2023-02-06T06:56:19.061Z,20.37
2023-02-06T07:01:22.018Z,20.33
2023-02-06T07:06:24.775Z,20.30
2023-02-06T07:11:28.894Z,20.29
2023-02-06T07:16:32.017Z,20.26
2023-02-06T07:21:35.698Z,20.21
2023-02-06T07:26:41.457Z,20.18
2023-02-06T07:31:44.232Z,20.13
2023-02-06T07:36:47.201Z,20.12
2023-02-06T07:41:51.556Z,20.10
2023-02-06T07:46:58.628Z,20.08
2023-02-06T07:52:01.407Z,20.07
2023-02-06T07:57:05.629Z,20.05
2023-02-06T08:02:10.666Z,20.04
2023-02-06T08:07:15.098Z,20.02
2023-02-06T08:12:19.264Z,20.00
2023-02-06T08:17:22.037Z,19.99
2023-02-06T08:22:24.799Z,19.98
2023-02-06T08:27:29.077Z,19.96
2023-02-06T08:32:34.454Z,19.94
2023-02-06T08:37:37.226Z,19.93
2023-02-06T08:42:41.306Z,19.92
2023-02-06T08:47:44.068Z,19.91
2023-02-06T08:52:46.957Z,19.90
2023-02-06T08:57:51.096Z,19.89
2023-02-06T09:02:54.472Z,19.87
2023-02-06T09:07:57.673Z,19.87
2023-02-06T09:13:01.851Z,14.24
2023-02-06T09:18:04.812Z,12.50
2023-02-06T09:23:07.528Z,11.77
2023-02-06T09:28:11.813Z,12.04
2023-02-06T09:33:14.691Z,16.01
2023-02-06T09:38:17.579Z,17.10
2023-02-06T09:43:22.437Z,17.68
2023-02-06T09:48:28.405Z,18.08
2023-02-06T09:53:40.138Z,18.39
2023-02-06T09:58:52.420Z,18.66
2023-02-06T10:04:10.113Z,18.87
2023-02-06T10:09:20.211Z,19.06
2023-02-06T10:14:33.305Z,19.24
2023-02-06T10:19:43.684Z,19.36
2023-02-06T10:24:54.586Z,19.46
2023-02-06T10:29:58.794Z,19.58
2023-02-06T10:35:14.582Z,19.66
2023-02-06T10:40:32.938Z,19.72
2023-02-06T10:45:44.641Z,19.79
2023-02-06T10:50:51.884Z,19.83
2023-02-06T10:55:58.696Z,19.90
2023-02-06T11:01:14.014Z,19.93
2023-02-06T11:06:29.483Z,19.99
2023-02-06T11:11:37.349Z,20.03
2023-02-06T11:16:42.011Z,20.06
2023-02-06T11:21:55.287Z,20.10
2023-02-06T11:27:00.217Z,20.13
2023-02-06T11:32:06.831Z,20.15
2023-02-06T11:37:32.500Z,20.19
2023-02-06T11:42:37.898Z,20.22
2023-02-06T11:47:42.058Z,20.25
2023-02-06T11:52:47.220Z,20.28
2023-02-06T11:58:05.056Z,20.31
2023-02-06T12:03:28.774Z,20.32
2023-02-06T12:08:41.538Z,20.36
2023-02-06T12:13:47.532Z,20.36
2023-02-06T12:18:55.211Z,20.34
2023-02-06T12:24:02.152Z,20.35
2023-02-06T12:29:14.645Z,20.39
2023-02-06T12:34:22.934Z,20.39
2023-02-06T12:39:32.306Z,20.40
2023-02-06T12:44:41.510Z,20.42
2023-02-06T12:49:55.720Z,20.42
2023-02-06T12:55:07.724Z,20.44
2023-02-06T13:00:38.889Z,18.08
2023-02-06T13:05:47.729Z,15.49
2023-02-06T13:11:00.293Z,14.21
2023-02-06T13:16:04.095Z,13.05
2023-02-06T13:21:19.638Z,15.70
2023-02-06T13:27:04.510Z,17.70
2023-02-06T13:32:46.916Z,18.36
2023-02-06T13:37:52.552Z,18.72
2023-02-06T13:42:58.310Z,18.98
2023-02-06T13:48:38.067Z,19.19
2023-02-06T13:54:05.950Z,19.37
2023-02-06T13:59:17.335Z,19.49
2023-02-06T14:04:25.117Z,19.62
2023-02-06T14:09:44.180Z,19.71
2023-02-06T14:15:00.580Z,19.77
2023-02-06T14:20:15.614Z,19.83
2023-02-06T14:25:39.590Z,19.91
2023-02-06T14:30:52.126Z,19.94
2023-02-06T14:36:10.960Z,20.03
2023-02-06T14:41:17.541Z,20.05
2023-02-06T14:46:21.275Z,20.08
2023-02-06T14:51:27.992Z,20.13
2023-02-06T14:56:34.188Z,20.15
2023-02-06T15:01:37.117Z,20.17
2023-02-06T15:06:42.219Z,20.20
2023-02-06T15:11:52.353Z,20.23
2023-02-06T15:16:59.231Z,20.27
2023-02-06T15:22:04.466Z,20.31
2023-02-06T15:27:19.362Z,20.34
2023-02-06T15:32:31.232Z,20.36
2023-02-06T15:37:36.000Z,20.38
2023-02-06T15:42:40.684Z,20.41
2023-02-06T15:47:46.064Z,20.43
2023-02-06T15:52:49.248Z,20.38
2023-02-06T15:57:55.450Z,20.40
2023-02-06T16:03:03.093Z,20.38
2023-02-06T16:08:11.410Z,20.37
2023-02-06T16:13:20.650Z,20.36
2023-02-06T16:18:31.101Z,20.37
2023-02-06T16:23:45.415Z,20.37
2023-02-06T16:28:55.587Z,20.39
2023-02-06T16:34:03.236Z,20.42
2023-02-06T16:39:06.193Z,20.49
2023-02-06T16:44:14.974Z,20.59
2023-02-06T16:49:20.010Z,20.70
2023-02-06T16:54:28.660Z,20.80
2023-02-06T16:59:32.799Z,20.90
2023-02-06T17:04:35.641Z,20.96
2023-02-06T17:09:38.512Z,21.05
2023-02-06T17:14:43.262Z,21.12
2023-02-06T17:19:46.535Z,21.09
2023-02-06T17:24:49.591Z,21.16
2023-02-06T17:29:54.336Z,21.21
2023-02-06T17:34:58.198Z,21.23
2023-02-06T17:40:01.044Z,21.23
2023-02-06T17:45:05.719Z,21.26
2023-02-06T17:50:10.726Z,21.26
2023-02-06T17:55:13.903Z,21.26
2023-02-06T18:00:20.324Z,21.28
2023-02-06T18:05:24.025Z,21.26
2023-02-06T18:10:27.692Z,21.24
2023-02-06T18:15:32.017Z,21.25
2023-02-06T18:20:36.476Z,21.25
2023-02-06T18:25:40.452Z,21.25
2023-02-06T18:30:46.124Z,21.26
2023-02-06T18:35:50.701Z,21.27
2023-02-06T18:40:53.939Z,21.31
2023-02-06T18:45:58.260Z,21.30
2023-02-06T18:51:01.183Z,21.33
2023-02-06T18:56:04.586Z,21.36
2023-02-06T19:01:14.309Z,21.35
2023-02-06T19:06:18.868Z,21.37
2023-02-06T19:11:21.896Z,21.34
2023-02-06T19:16:26.453Z,21.26
2023-02-06T19:21:29.378Z,21.24
2023-02-06T19:26:33.126Z,21.22
2023-02-06T19:31:40.412Z,21.17
2023-02-06T19:36:43.537Z,21.19
2023-02-06T19:41:46.371Z,21.30
2023-02-06T19:46:50.466Z,21.32
2023-02-06T19:51:53.644Z,21.26
2023-02-06T19:56:56.534Z,21.24
2023-02-06T20:02:02.830Z,21.26
2023-02-06T20:07:05.665Z,21.27
2023-02-06T20:12:09.821Z,21.34
2023-02-06T20:17:14.002Z,21.31
2023-02-06T20:22:16.871Z,21.30
2023-02-06T20:27:19.747Z,21.31
2023-02-06T20:32:24.297Z,21.33
2023-02-06T20:37:27.522Z,21.47
2023-02-06T20:42:32.011Z,21.38
2023-02-06T20:47:36.135Z,21.40
2023-02-06T20:52:38.858Z,21.39
2023-02-06T20:57:41.592Z,21.44
2023-02-06T21:02:45.842Z,21.39
2023-02-06T21:07:48.738Z,21.38
2023-02-06T21:12:51.542Z,21.43
2023-02-06T21:17:55.736Z,21.42
2023-02-06T21:22:58.718Z,21.44
2023-02-06T21:28:01.765Z,21.60
2023-02-06T21:33:05.979Z,21.69
2023-02-06T21:38:09.018Z,21.73
2023-02-06T21:43:12.458Z,21.71
2023-02-06T21:48:16.661Z,21.72
2023-02-06T21:53:19.759Z,21.72
2023-02-06T21:58:22.512Z,21.73
2023-02-06T22:03:26.857Z,21.75
2023-02-06T22:08:29.760Z,21.74
2023-02-06T22:13:32.493Z,21.76
2023-02-06T22:18:37.377Z,21.80
2023-02-06T22:23:41.570Z,21.82
2023-02-06T22:28:45.175Z,21.84
2023-02-06T22:33:49.730Z,21.88
2023-02-06T22:38:55.159Z,21.91
2023-02-06T22:43:58.496Z,21.92
2023-02-06T22:49:02.921Z,21.95
2023-02-06T22:54:09.251Z,21.96
2023-02-06T22:59:16.819Z,21.96
2023-02-06T23:04:23.177Z,21.98
2023-02-06T23:09:28.717Z,22.02
2023-02-06T23:14:33.024Z,22.00
2023-02-06T23:19:37.196Z,22.00
2023-02-06T23:24:40.212Z,22.04
2023-02-06T23:29:43.063Z,22.00
2023-02-06T23:34:47.520Z,21.98
2023-02-06T23:39:50.250Z,21.97
2023-02-06T23:44:53.147Z,21.96
2023-02-06T23:49:57.254Z,21.86
2023-02-06T23:55:00.040Z,21.82
